Flight Track Log - Related Links

Times and Time Zones

All times are in EDT time to prevent confusion due to time zone crossing. See the AWI3680 flight status page for this flight to view local times or setup timezone preferences in your user account.

Time Position Orientation Groundspeed Altitude Reporting Facility
EDT Latitude Longitude Course Direction KTS MPH feet Rate Location/Type
Fri 07:31:03 PM 39.8833 -75.2167 North 148 170 1,000  Level Philadelphia TRACON
Fri 07:32:28 PM 39.8667 -75.1333 105° East 206 237 3,100 1,862 Climbing Philadelphia TRACON
Fri 07:33:00 PM 39.8158 -74.8625 105° East  Level FlightAware Approximate
Fri 07:33:28 PM 39.8500 -75.0500 105° East 248 285 5,500  Level Philadelphia TRACON
Fri 07:34:00 PM 39.7908 -74.7373 105° East  Level FlightAware Approximate
Fri 07:35:00 PM 39.8387 -74.6447 37° Northeast  Level FlightAware Approximate
Fri 07:35:05 PM 39.8239 -74.9144 104° East 273 314 9,200  Level New York Center
Fri 07:36:00 PM 39.9177 -74.5667 North  Level FlightAware Approximate
Fri 07:36:03 PM 39.8089 -74.8056 100° East 267 307 11,200  Level New York Center
Fri 07:37:04 PM 39.8147 -74.6950 86° East 286 329 12,300 1,250 Climbing New York Center
Fri 07:38:03 PM 39.8944 -74.6183 36° Northeast 285 328 13,700 1,300 Climbing New York Center
Fri 07:39:04 PM 39.9764 -74.5389 37° Northeast 331 381 14,900 1,279 Climbing New York Center
Fri 07:40:05 PM 40.0603 -74.4539 38° Northeast 369 425 16,300 1,650 Climbing New York Center
Fri 07:41:04 PM 40.1439 -74.3742 36° Northeast 378 435 18,200 1,373 Climbing New York Center
Fri 07:42:03 PM 40.2194 -74.2964 38° Northeast 373 429 19,000 800 Climbing New York Center
Fri 07:43:04 PM 40.3156 -74.2169 32° Northeast 373 429 19,800 885 Climbing New York Center
Fri 07:44:05 PM 40.4092 -74.1508 28° Northeast 373 429 20,800 1,008 Climbing New York Center
Fri 07:45:03 PM 40.5008 -74.0761 32° Northeast 378 435 21,800 958 Climbing New York Center
Fri 07:46:04 PM 40.5964 -74.0069 29° Northeast 383 441 22,700 836 Climbing New York Center
Fri 07:47:05 PM 40.6900 -73.9350 30° Northeast 388 447 23,500 429 Climbing New York Center
Fri 07:49:06 PM 40.8756 -73.7631 35° Northeast 425 489 24,000 166 Climbing Boston Center
Fri 07:50:06 PM 40.9622 -73.6494 45° Northeast 425 489 24,000 -450 Level Boston Center
Fri 07:51:06 PM 41.0711 -73.5908 22° Northeast 419 482 23,100 -500 Descending Boston Center
Fri 07:52:06 PM 41.1800 -73.5406 19° North 419 482 23,000 -750 Descending Boston Center
Fri 07:53:06 PM 41.2867 -73.4925 19° North 413 475 21,600 -1,700 Descending Boston Center
Fri 07:54:06 PM 41.3872 -73.4444 20° North 397 457 19,600 -1,800 Descending Boston Center
Fri 07:55:06 PM 41.4961 -73.3908 20° North 382 440 18,000 -800 Descending Boston Center
Fri 07:56:06 PM 41.6022 -73.4200 348° North 375 432 18,000 -400 Level Boston Center
Fri 07:57:06 PM 41.7039 -73.4494 348° North 375 432 17,200 -1,050 Descending Boston Center
Fri 07:58:06 PM 41.8100 -73.4844 346° North 375 432 15,900 -1,189 Descending Boston Center
Fri 07:58:52 PM 41.8889 -73.5136 345° North 385 443 15,100 -1,200 Descending Boston Center
Fri 08:00:06 PM 42.0072 -73.5519 346° North 369 425 13,500 -1,209 Descending Boston Center
Fri 08:01:06 PM 42.0986 -73.5872 344° North 354 407 12,400 -1,200 Descending Boston Center
Fri 08:02:06 PM 42.1858 -73.6197 345° North 336 387 11,100 -1,600 Descending Boston Center
Fri 08:03:06 PM 42.2647 -73.6492 345° North 309 356 9,200 -2,000 Descending Boston Center
Fri 08:04:06 PM 42.3394 -73.6758 345° North 288 331 7,100 -1,925 Descending Boston Center
Fri 08:05:20 PM 42.4286 -73.7142 342° North 272 313 4,900 -1,650 Descending Boston Center
Fri 08:06:06 PM 42.4806 -73.7322 346° North 265 305 3,800 -983 Descending Boston Center
Fri 08:07:16 PM 42.5531 -73.7675 340° North 230 265 3,000 -369 Descending Boston Center
Fri 08:08:16 PM 42.6069 -73.7969 338° Northwest 195 224 3,000 -545 Level Boston Center
Fri 08:09:17 PM 42.6506 -73.8036 354° North 151 174 1,900 -1,082 Descending Boston Center

Login

Don't have an account? Register now (free) for customized features, flight alerts, and more!